Archival Weather

Republic

Farmingdale, New York (KFRG)

Report from: Sunday, January 28, 2024 2:32 AM EST
Current time: Friday, June 21, 2024 8:51 PM EDT

Current weather – Weather history – Daily summaries
Weather forecast

Temperature4.4°C (39.9°F)
Wind chill3.2°C (37.8°F)
Dew point2.8°C (37.0°F)
Winds 3 kts (1.5 m/s, 3.5 mph) East (80°)
Visibility9 mi. (14.5 km)
Clouds Scattered clouds 2,500 ft. (762 m)
Scattered clouds 4,500 ft. (1,372 m)
Ceiling: Overcast 6,000 ft. (1,829 m)
Altimeter30.11 in.Hg (1020 mB)
Precipitiation0.01 in. (0 mm)
Relative humidity89 %
Density altitude-1,390 ft. (-424 m)
Remarks Fully automated report
Automated weather observing station without precipitation discriminator
Flight conditions Visual Meteorological Conditions
Raw dataKFRG 280732Z AUTO 08003KT 9SM SCT025 SCT045 OVC060 04/03 A3011 RMK AO1 P0001 T00440028
An error has occurred. This application may no longer respond until reloaded. Reload 🗙